Time;durP1;ratioP1;P1;durP2;ratioP2;P2;SDS_P1;SDS_P2;PMS_P1;PMS_P2;Temp;Humidity;BMP_temperature;BMP_pressure;BME280_temperature;BME280_humidity;BME280_pressure;Samples;Min_cycle;Max_cycle;Signal;HPM_P1;HPM_P2
2023/04/13 00:01:20;;;;;;;14.23;13.73;;;8.70;99.90;;;;;;4914819;29;20462;-72
2023/04/13 00:03:46;;;;;;;12.30;11.90;;;8.70;99.90;;;;;;4914763;29;21020;-73
2023/04/13 02:20:39;;;;;;;14.90;14.20;;;7.00;99.90;;;;;;5996979;23;20393;-74
2023/04/13 02:23:07;;;;;;;15.20;14.60;;;7.20;99.90;;;;;;4894795;29;20486;-75
2023/04/13 02:25:33;;;;;;;13.30;12.70;;;7.10;99.90;;;;;;4896189;29;20594;-76
2023/04/13 02:28:00;;;;;;;12.70;12.27;;;7.20;99.90;;;;;;4896300;29;20471;-76
2023/04/13 02:30:27;;;;;;;12.17;11.77;;;7.20;99.90;;;;;;4896168;29;20957;-76
2023/04/13 02:32:55;;;;;;;15.63;14.60;;;7.30;99.90;;;;;;4896269;29;20486;-77
2023/04/13 02:35:23;;;;;;;14.17;13.57;;;7.30;99.90;;;;;;4896306;29;20511;-76
2023/04/13 02:37:52;;;;;;;12.00;11.60;;;7.30;99.90;;;;;;4896317;29;20530;-75
2023/04/13 02:40:19;;;;;;;13.27;12.77;;;7.20;99.90;;;;;;4896098;29;20451;-75
2023/04/13 02:42:47;;;;;;;14.07;13.50;;;7.20;99.90;;;;;;4895845;29;20961;-75
2023/04/13 02:45:17;;;;;;;13.03;12.60;;;7.30;99.90;;;;;;4895592;29;21064;-75
2023/04/13 02:47:44;;;;;;;14.47;13.97;;;7.20;99.90;;;;;;4895836;29;20459;-76
2023/04/13 02:50:11;;;;;;;13.80;13.20;;;7.20;99.90;;;;;;4895731;29;20797;-75
2023/04/13 02:52:38;;;;;;;14.43;13.80;;;7.20;99.90;;;;;;4894775;29;20459;-76
2023/04/13 02:55:08;;;;;;;15.77;15.07;;;7.20;99.90;;;;;;4895862;29;20976;-75
2023/04/13 02:57:34;;;;;;;14.30;13.70;;;7.10;99.90;;;;;;4896086;29;20498;-76
2023/04/13 03:00:06;;;;;;;14.23;13.73;;;6.90;99.90;;;;;;4895591;29;20459;-76
2023/04/13 03:02:34;;;;;;;15.33;14.43;;;6.90;99.90;;;;;;4895443;29;20961;-75
2023/04/13 03:05:02;;;;;;;14.50;13.80;;;6.80;99.90;;;;;;4895515;29;20491;-76
2023/04/13 03:07:30;;;;;;;14.03;13.53;;;6.80;99.90;;;;;;4895696;29;21081;-76
2023/04/13 03:09:57;;;;;;;13.87;13.27;;;6.70;99.90;;;;;;4895493;29;20469;-76
2023/04/13 03:12:25;;;;;;;14.07;13.47;;;6.70;99.90;;;;;;4895838;29;20459;-76
2023/04/13 03:14:52;;;;;;;14.27;13.47;;;6.60;99.90;;;;;;4895847;29;20458;-76
2023/04/13 03:17:19;;;;;;;14.43;13.90;;;6.60;99.90;;;;;;4895466;29;20482;-76
2023/04/13 03:19:47;;;;;;;13.97;13.27;;;6.60;99.90;;;;;;4895682;29;20471;-74
2023/04/13 03:22:14;;;;;;;13.30;12.90;;;6.60;99.90;;;;;;4906312;29;21097;-74
2023/04/13 03:24:41;;;;;;;13.63;13.13;;;6.60;99.90;;;;;;4914258;29;20502;-75
2023/04/13 03:27:08;;;;;;;13.80;13.20;;;6.60;99.90;;;;;;4914510;29;20466;-75
2023/04/13 03:29:36;;;;;;;13.80;13.40;;;6.60;99.90;;;;;;4914189;29;20458;-75
2023/04/13 03:32:03;;;;;;;12.30;11.90;;;6.60;99.90;;;;;;4914268;29;20469;-75
2023/04/13 03:34:30;;;;;;;12.97;12.57;;;6.60;99.90;;;;;;4913850;29;20463;-75
2023/04/13 03:36:57;;;;;;;12.67;12.27;;;6.60;99.90;;;;;;4913861;29;20462;-75
2023/04/13 03:39:23;;;;;;;12.10;11.70;;;6.60;99.90;;;;;;4914389;29;20462;-75
2023/04/13 03:41:50;;;;;;;12.20;11.80;;;6.70;99.90;;;;;;4913489;29;20450;-75
2023/04/13 03:44:17;;;;;;;12.30;11.90;;;6.80;99.90;;;;;;4913568;29;20466;-76
2023/04/13 03:46:45;;;;;;;13.80;13.30;;;6.90;99.90;;;;;;4913674;29;20473;-75
2023/04/13 03:49:12;;;;;;;13.87;13.33;;;7.00;99.90;;;;;;4913732;29;20901;-75
2023/04/13 03:51:39;;;;;;;13.07;12.47;;;7.00;99.90;;;;;;4913843;29;20450;-76
2023/04/13 03:54:05;;;;;;;11.27;10.87;;;7.00;99.90;;;;;;4913900;29;20463;-75
2023/04/13 03:56:33;;;;;;;11.60;11.20;;;7.10;99.90;;;;;;4913156;29;20462;-74
2023/04/13 03:58:59;;;;;;;12.70;12.20;;;7.20;99.90;;;;;;4913327;29;20739;-74
2023/04/13 04:01:26;;;;;;;12.13;11.60;;;7.20;99.90;;;;;;4912989;29;21004;-75
2023/04/13 04:03:56;;;;;;;11.70;11.20;;;7.20;99.90;;;;;;4913098;29;20505;-75
2023/04/13 04:06:22;;;;;;;10.53;10.23;;;7.30;99.90;;;;;;4913502;29;20573;-74
2023/04/13 04:08:50;;;;;;;12.13;11.30;;;7.40;99.90;;;;;;4913447;29;20469;-75
2023/04/13 04:11:17;;;;;;;10.30;9.90;;;7.50;99.90;;;;;;4913578;29;20454;-75
2023/04/13 04:13:43;;;;;;;10.30;9.67;;;7.70;99.90;;;;;;4916351;29;20446;-75
2023/04/13 04:16:11;;;;;;;10.23;9.93;;;7.80;99.90;;;;;;4932003;29;20449;-75
2023/04/13 04:18:37;;;;;;;11.00;10.60;;;8.00;99.90;;;;;;4932036;29;20460;-75
2023/04/13 04:21:06;;;;;;;11.30;10.80;;;8.10;99.90;;;;;;4932099;29;20494;-76
2023/04/13 04:23:36;;;;;;;13.20;12.60;;;8.20;99.90;;;;;;4933210;29;20966;-76
2023/04/13 04:26:03;;;;;;;11.50;10.80;;;8.30;99.90;;;;;;4933132;29;20500;-77
2023/04/13 04:28:30;;;;;;;10.43;10.13;;;8.30;99.90;;;;;;4931587;29;20858;-75
2023/04/13 04:31:00;;;;;;;12.70;11.33;;;8.40;99.90;;;;;;4932311;29;20477;-75
2023/04/13 04:33:27;;;;;;;11.80;11.10;;;8.40;99.90;;;;;;4916549;29;20616;-75
2023/04/13 04:35:54;;;;;;;10.27;9.77;;;8.50;99.90;;;;;;4913270;29;20470;-72
2023/04/13 04:38:23;;;;;;;11.03;10.60;;;8.50;99.90;;;;;;4911682;29;20470;-71
2023/04/13 04:40:56;;;;;;;11.27;10.77;;;8.40;99.90;;;;;;4912075;29;20458;-70
2023/04/13 04:43:25;;;;;;;11.33;10.83;;;8.40;99.90;;;;;;4913572;29;20450;-70
2023/04/13 04:45:56;;;;;;;11.60;11.00;;;8.40;99.90;;;;;;4913521;29;21055;-70
2023/04/13 04:48:25;;;;;;;12.10;11.50;;;8.40;99.90;;;;;;4913557;29;20533;-70
2023/04/13 04:50:52;;;;;;;12.00;11.60;;;8.40;99.90;;;;;;4911622;29;20465;-71
2023/04/13 04:53:19;;;;;;;12.57;12.00;;;8.40;99.90;;;;;;4913112;29;20462;-70
2023/04/13 04:55:47;;;;;;;11.77;11.27;;;8.30;99.90;;;;;;4912651;29;20446;-71
2023/04/13 04:58:14;;;;;;;11.00;10.40;;;8.30;99.90;;;;;;4913147;29;20489;-70
2023/04/13 05:00:41;;;;;;;9.77;9.47;;;8.20;99.90;;;;;;4914064;29;20450;-71
2023/04/13 05:03:07;;;;;;;10.50;9.90;;;8.20;99.90;;;;;;4913157;29;20451;-70
2023/04/13 05:05:34;;;;;;;10.97;10.47;;;8.30;99.90;;;;;;4912920;29;20875;-71
2023/04/13 05:08:01;;;;;;;13.37;12.47;;;8.30;99.90;;;;;;4912588;29;20458;-72
2023/04/13 05:10:28;;;;;;;11.43;10.77;;;8.30;99.90;;;;;;4912089;29;20850;-72
2023/04/13 05:12:57;;;;;;;11.33;10.83;;;8.40;99.90;;;;;;4912212;29;20469;-72
2023/04/13 05:15:24;;;;;;;12.53;11.77;;;8.50;99.90;;;;;;4911348;29;21148;-72
2023/04/13 05:17:50;;;;;;;12.00;11.60;;;8.40;99.90;;;;;;4912320;29;20468;-72
2023/04/13 05:20:18;;;;;;;11.07;10.47;;;8.50;99.90;;;;;;4911933;29;20836;-72
2023/04/13 05:22:45;;;;;;;11.40;10.80;;;8.50;99.90;;;;;;4911804;29;20525;-71
2023/04/13 05:25:12;;;;;;;11.03;10.20;;;8.60;99.90;;;;;;4911850;29;20494;-71
2023/04/13 05:27:38;;;;;;;10.07;9.40;;;8.50;99.90;;;;;;4912435;29;20458;-71
2023/04/13 05:30:08;;;;;;;13.27;11.17;;;8.50;99.90;;;;;;4912230;29;20956;-72
2023/04/13 05:32:36;;;;;;;10.90;10.20;;;8.50;99.90;;;;;;4911818;29;20454;-72
2023/04/13 05:35:03;;;;;;;11.20;10.70;;;8.60;99.90;;;;;;4911793;29;20460;-72
2023/04/13 05:37:30;;;;;;;12.07;11.50;;;8.60;99.90;;;;;;4911827;29;20537;-72
2023/04/13 05:39:57;;;;;;;11.63;10.87;;;8.60;99.90;;;;;;4906176;29;20469;-71
2023/04/13 05:42:24;;;;;;;10.60;10.10;;;8.70;99.90;;;;;;4911749;29;20518;-72
2023/04/13 05:44:50;;;;;;;10.13;9.60;;;8.70;99.90;;;;;;4911992;29;20486;-70
2023/04/13 05:47:22;;;;;;;11.77;10.90;;;8.70;99.90;;;;;;4912207;29;20455;-71
2023/04/13 05:49:49;;;;;;;11.90;11.10;;;8.80;99.90;;;;;;4912050;29;20462;-70
2023/04/13 05:52:15;;;;;;;12.00;11.10;;;8.80;99.90;;;;;;4912113;29;20469;-71
2023/04/13 05:54:42;;;;;;;11.00;10.50;;;8.70;99.90;;;;;;4915395;29;20458;-71
2023/04/13 05:57:09;;;;;;;11.00;10.40;;;8.70;99.90;;;;;;4931457;29;20943;-70
2023/04/13 05:59:35;;;;;;;10.63;10.13;;;8.70;99.90;;;;;;4931328;29;20457;-69
2023/04/13 06:02:02;;;;;;;11.73;10.63;;;8.70;99.90;;;;;;4931127;29;20461;-70
2023/04/13 06:04:30;;;;;;;11.43;10.93;;;8.70;99.90;;;;;;4930967;29;20560;-70
2023/04/13 06:06:58;;;;;;;14.17;12.77;;;8.80;99.90;;;;;;4931384;29;20493;-70
2023/04/13 06:09:24;;;;;;;12.77;12.13;;;9.00;99.90;;;;;;4931496;29;20548;-71
2023/04/13 06:11:51;;;;;;;13.50;12.50;;;9.00;99.90;;;;;;4931778;29;20465;-71
2023/04/13 06:14:19;;;;;;;11.77;11.27;;;9.00;99.90;;;;;;4931465;29;20517;-71
2023/04/13 06:16:46;;;;;;;10.53;10.10;;;9.00;99.90;;;;;;4931322;29;20789;-71
2023/04/13 06:19:12;;;;;;;12.17;11.13;;;9.00;99.90;;;;;;4931014;29;20450;-70
2023/04/13 06:21:40;;;;;;;11.83;11.23;;;9.10;99.90;;;;;;4931188;29;20488;-71
2023/04/13 06:24:08;;;;;;;13.30;12.60;;;9.30;99.90;;;;;;4931515;29;20456;-71
2023/04/13 06:26:36;;;;;;;13.13;11.80;;;9.40;99.90;;;;;;4931858;29;20527;-71
2023/04/13 06:29:03;;;;;;;12.30;11.57;;;9.50;99.90;;;;;;4934216;29;20488;-71
2023/04/13 06:31:29;;;;;;;12.63;11.60;;;9.50;99.90;;;;;;4934226;29;20453;-70
2023/04/13 06:33:56;;;;;;;13.13;12.03;;;9.40;99.90;;;;;;4934238;29;20819;-71
2023/04/13 06:36:24;;;;;;;11.27;10.67;;;9.30;99.90;;;;;;4934334;29;20473;-72
2023/04/13 06:38:53;;;;;;;12.00;11.10;;;9.30;99.90;;;;;;4934934;29;20485;-72
2023/04/13 06:41:19;;;;;;;10.23;9.80;;;9.30;99.90;;;;;;4929267;29;20481;-71
2023/04/13 06:43:46;;;;;;;11.60;10.80;;;9.70;99.90;;;;;;4934576;29;20457;-72
2023/04/13 06:46:13;;;;;;;11.10;10.37;;;10.40;99.90;;;;;;4934335;29;20500;-72
2023/04/13 06:48:40;;;;;;;11.00;10.60;;;11.50;99.90;;;;;;4934505;29;20556;-72
2023/04/13 06:51:07;;;;;;;10.13;9.73;;;12.20;99.50;;;;;;4934631;29;20461;-72
2023/04/13 06:53:34;;;;;;;9.67;9.27;;;12.30;98.50;;;;;;4934421;29;20453;-73
2023/04/13 06:56:02;;;;;;;11.03;10.17;;;12.10;99.50;;;;;;4934418;29;20458;-74
2023/04/13 06:58:29;;;;;;;10.20;9.60;;;11.80;99.90;;;;;;4934162;29;20457;-73
2023/04/13 07:00:55;;;;;;;10.30;9.87;;;11.80;99.20;;;;;;4934267;29;20477;-71
2023/04/13 07:03:22;;;;;;;9.87;9.27;;;11.50;99.90;;;;;;4934549;29;20464;-72
2023/04/13 07:05:49;;;;;;;9.60;9.20;;;11.50;99.90;;;;;;4933972;29;20485;-71
2023/04/13 07:08:18;;;;;;;9.97;9.37;;;11.00;99.90;;;;;;4933557;29;20474;-71
2023/04/13 07:10:44;;;;;;;9.63;8.97;;;10.90;99.90;;;;;;4914396;29;20543;-71
2023/04/13 07:13:12;;;;;;;9.63;9.03;;;10.90;99.90;;;;;;4910952;29;20563;-72
2023/04/13 07:15:39;;;;;;;11.20;10.70;;;11.10;99.90;;;;;;4897514;29;20463;-72
2023/04/13 07:18:06;;;;;;;11.63;11.00;;;11.00;99.90;;;;;;4898890;29;20820;-72
2023/04/13 07:20:33;;;;;;;11.07;10.57;;;10.90;99.90;;;;;;4914478;29;20475;-73
2023/04/13 07:23:00;;;;;;;9.37;8.97;;;10.90;99.90;;;;;;4914169;29;20486;-73
2023/04/13 07:25:27;;;;;;;9.23;8.70;;;10.60;99.90;;;;;;4914738;29;20687;-72
2023/04/13 07:27:53;;;;;;;9.30;8.70;;;10.60;99.90;;;;;;4915129;29;20460;-73
2023/04/13 07:30:21;;;;;;;10.60;9.90;;;10.60;99.90;;;;;;4915155;29;20462;-72
2023/04/13 07:33:57;;;;;;;10.10;9.60;;;10.80;99.90;;;;;;4912591;29;20499;-71
2023/04/13 07:36:25;;;;;;;10.27;9.63;;;10.90;99.90;;;;;;4905318;29;20792;-71
2023/04/13 07:38:51;;;;;;;11.70;10.90;;;11.10;99.90;;;;;;4913852;29;20545;-72
2023/04/13 07:41:21;;;;;;;9.40;8.80;;;11.10;99.90;;;;;;4914251;29;20449;-71
2023/04/13 07:43:48;;;;;;;9.47;8.87;;;10.90;99.90;;;;;;4914259;29;20454;-72
2023/04/13 07:46:16;;;;;;;10.10;9.50;;;11.10;99.90;;;;;;4914249;29;20490;-72
2023/04/13 07:48:42;;;;;;;9.90;9.50;;;11.10;99.90;;;;;;4913939;29;20465;-71
2023/04/13 07:51:16;;;;;;;9.23;8.60;;;11.00;99.90;;;;;;4914127;29;20844;-72
2023/04/13 07:53:43;;;;;;;9.77;9.10;;;11.00;99.90;;;;;;4914256;29;20876;-71
2023/04/13 07:56:10;;;;;;;9.20;8.80;;;10.80;99.90;;;;;;4914645;29;20451;-72
2023/04/13 07:58:37;;;;;;;9.10;8.60;;;10.70;99.90;;;;;;4914088;29;20517;-72
2023/04/13 08:01:04;;;;;;;8.10;7.57;;;10.90;99.90;;;;;;4913989;29;20841;-71
2023/04/13 08:03:32;;;;;;;9.77;8.67;;;10.80;99.90;;;;;;4913853;29;20557;-71
2023/04/13 08:06:00;;;;;;;9.37;8.77;;;10.90;99.90;;;;;;4913781;29;20505;-71
2023/04/13 08:08:28;;;;;;;9.60;8.87;;;10.60;99.90;;;;;;4913804;29;20486;-71
2023/04/13 08:10:55;;;;;;;10.10;9.10;;;10.80;99.90;;;;;;4914010;29;20462;-71
2023/04/13 08:13:22;;;;;;;8.90;8.40;;;10.80;99.90;;;;;;4914057;29;20868;-72
2023/04/13 08:15:49;;;;;;;9.40;8.70;;;10.90;99.90;;;;;;4913826;29;20937;-72
2023/04/13 08:18:16;;;;;;;9.57;8.60;;;11.10;99.90;;;;;;4913606;29;20457;-71
2023/04/13 08:20:44;;;;;;;9.63;8.67;;;11.50;99.90;;;;;;4913310;29;20481;-71
2023/04/13 08:23:12;;;;;;;9.40;8.90;;;12.20;99.90;;;;;;4913527;29;20465;-73
2023/04/13 08:25:40;;;;;;;8.77;8.40;;;12.60;99.50;;;;;;4914010;29;20466;-73
2023/04/13 08:28:08;;;;;;;9.90;9.40;;;13.20;99.10;;;;;;4913659;29;20466;-73
2023/04/13 08:30:35;;;;;;;9.40;8.70;;;13.50;97.70;;;;;;4913492;29;20454;-72
2023/04/13 08:33:02;;;;;;;9.90;9.30;;;13.20;97.00;;;;;;4913424;29;20494;-73
2023/04/13 08:35:29;;;;;;;10.80;10.00;;;13.20;97.00;;;;;;4913326;29;20865;-73
2023/04/13 08:37:57;;;;;;;9.70;8.90;;;12.90;96.70;;;;;;4913237;29;20466;-72
2023/04/13 08:40:24;;;;;;;9.23;8.63;;;12.60;97.70;;;;;;4913469;29;20470;-73
2023/04/13 08:42:51;;;;;;;8.90;8.50;;;12.70;97.10;;;;;;4913640;29;20451;-72
2023/04/13 08:45:19;;;;;;;8.70;8.37;;;12.70;96.50;;;;;;4913140;29;20953;-72
2023/04/13 08:47:48;;;;;;;9.57;9.03;;;12.50;97.20;;;;;;4912937;29;20490;-72
2023/04/13 08:50:16;;;;;;;10.43;9.60;;;12.60;97.30;;;;;;4912987;29;20549;-71
2023/04/13 08:52:42;;;;;;;9.60;9.00;;;12.50;97.30;;;;;;4912910;29;20458;-72
2023/04/13 08:55:11;;;;;;;9.90;9.37;;;12.30;97.60;;;;;;4913205;29;20462;-71
2023/04/13 08:57:39;;;;;;;9.63;8.93;;;11.80;99.00;;;;;;4913376;29;20533;-71
2023/04/13 09:00:11;;;;;;;10.60;10.00;;;11.50;99.30;;;;;;4913454;29;20460;-73
2023/04/13 09:02:41;;;;;;;10.07;9.50;;;11.30;99.90;;;;;;4913290;29;20462;-72
2023/04/13 09:05:14;;;;;;;10.20;9.70;;;11.10;99.90;;;;;;4912920;29;20980;-73
2023/04/13 09:07:43;;;;;;;10.20;9.60;;;11.20;99.90;;;;;;4912739;29;20597;-73
2023/04/13 09:10:15;;;;;;;9.77;9.00;;;11.40;99.90;;;;;;4912965;29;20460;-71
2023/04/13 09:12:42;;;;;;;9.57;8.70;;;11.40;99.90;;;;;;4912678;29;20821;-72
2023/04/13 09:15:11;;;;;;;9.57;8.90;;;11.30;99.90;;;;;;4913138;29;20466;-73
2023/04/13 09:17:38;;;;;;;9.33;8.73;;;11.60;99.90;;;;;;4912952;29;20481;-72
2023/04/13 09:20:16;;;;;;;9.17;8.43;;;11.90;99.90;;;;;;4912787;29;20811;-73
2023/04/13 09:22:43;;;;;;;9.00;8.47;;;12.30;99.60;;;;;;4912568;29;20490;-73
2023/04/13 09:25:22;;;;;;;9.43;8.63;;;12.70;98.40;;;;;;4912708;29;20458;-73
2023/04/13 09:27:50;;;;;;;10.90;10.20;;;12.90;98.10;;;;;;4912736;29;20497;-73
2023/04/13 09:30:19;;;;;;;11.40;10.50;;;13.30;97.10;;;;;;4912352;29;20466;-73
2023/04/13 09:32:46;;;;;;;9.77;9.17;;;13.50;96.70;;;;;;4912695;29;20458;-73
2023/04/13 09:35:13;;;;;;;10.37;9.60;;;13.80;95.60;;;;;;4912510;29;20959;-73
2023/04/13 09:37:41;;;;;;;10.40;9.70;;;13.90;94.90;;;;;;4912649;29;20450;-73
2023/04/13 09:40:10;;;;;;;9.50;8.90;;;14.30;93.90;;;;;;4912874;29;20462;-74
2023/04/13 09:42:38;;;;;;;10.20;9.70;;;14.60;93.30;;;;;;4912654;29;20473;-74
2023/04/13 09:45:06;;;;;;;11.13;9.97;;;14.40;93.10;;;;;;4912687;29;20545;-73
2023/04/13 09:47:39;;;;;;;10.13;9.50;;;13.70;94.10;;;;;;4912413;29;20497;-73
2023/04/13 09:50:16;;;;;;;10.80;9.70;;;13.50;94.10;;;;;;4912681;29;20450;-73
2023/04/13 09:52:43;;;;;;;8.90;8.27;;;13.10;95.30;;;;;;4912608;29;20490;-73
2023/04/13 09:55:15;;;;;;;10.53;9.77;;;12.90;95.60;;;;;;4912611;29;20456;-73
2023/04/13 09:57:43;;;;;;;9.80;9.40;;;13.10;96.10;;;;;;4912446;29;20533;-73
2023/04/13 10:00:15;;;;;;;10.23;9.63;;;13.20;95.30;;;;;;4912382;29;20450;-74
2023/04/13 10:02:42;;;;;;;9.80;9.10;;;13.40;95.10;;;;;;4914714;29;20868;-74
2023/04/13 10:05:10;;;;;;;9.53;8.70;;;13.30;94.90;;;;;;4916008;29;20454;-72
2023/04/13 10:07:38;;;;;;;9.03;8.63;;;13.10;95.00;;;;;;4916026;29;20972;-73
2023/04/13 10:10:06;;;;;;;9.00;8.50;;;13.00;95.40;;;;;;4916276;29;20462;-73
2023/04/13 10:12:35;;;;;;;8.83;8.40;;;12.90;96.20;;;;;;4915678;29;20828;-74
2023/04/13 10:15:13;;;;;;;8.63;8.13;;;13.00;96.20;;;;;;4915580;29;20453;-73
2023/04/13 10:17:52;;;;;;;9.70;8.90;;;12.90;96.30;;;;;;4915577;29;20457;-73
2023/04/13 10:20:19;;;;;;;9.47;8.57;;;12.90;97.00;;;;;;4915561;29;20980;-73
2023/04/13 10:22:46;;;;;;;8.97;8.20;;;13.20;96.80;;;;;;4915043;29;20752;-73
2023/04/13 10:25:14;;;;;;;8.83;8.30;;;13.60;95.40;;;;;;4915214;29;20458;-73
2023/04/13 10:27:41;;;;;;;9.00;8.50;;;13.60;95.50;;;;;;4915311;29;20494;-73
2023/04/13 10:30:17;;;;;;;10.60;10.00;;;13.60;93.80;;;;;;4915892;29;20465;-74
2023/04/13 10:32:44;;;;;;;10.00;9.53;;;14.00;92.90;;;;;;4915327;29;20992;-74
2023/04/13 10:35:13;;;;;;;11.03;10.53;;;14.10;92.30;;;;;;4915202;29;20454;-73
2023/04/13 10:37:43;;;;;;;9.33;8.83;;;13.80;91.70;;;;;;4915513;29;20822;-73
2023/04/13 10:40:13;;;;;;;9.13;8.53;;;13.80;92.10;;;;;;4915459;29;20945;-73
2023/04/13 10:42:42;;;;;;;9.20;8.70;;;13.90;92.10;;;;;;4915020;29;20464;-73
2023/04/13 10:45:19;;;;;;;10.50;9.90;;;14.10;92.40;;;;;;4915226;29;20568;-73
2023/04/13 10:47:46;;;;;;;8.73;8.10;;;14.10;91.70;;;;;;4915094;29;20501;-74
2023/04/13 10:50:18;;;;;;;9.47;8.87;;;14.10;90.90;;;;;;4915237;29;20537;-73
2023/04/13 10:53:01;;;;;;;9.73;9.07;;;14.10;90.50;;;;;;4915257;29;20484;-73
2023/04/13 10:55:30;;;;;;;10.27;9.40;;;13.90;90.60;;;;;;4915085;29;20458;-73
2023/04/13 10:57:59;;;;;;;9.70;9.17;;;13.50;90.70;;;;;;4915040;29;20528;-73
2023/04/13 11:00:29;;;;;;;10.23;9.63;;;13.30;91.00;;;;;;4915177;29;20459;-73
2023/04/13 11:02:57;;;;;;;9.30;8.90;;;13.10;91.40;;;;;;4914629;29;20749;-73
2023/04/13 11:05:26;;;;;;;10.60;10.03;;;13.40;91.60;;;;;;4914274;29;20454;-73
2023/04/13 11:07:53;;;;;;;11.27;10.63;;;13.40;93.50;;;;;;4914769;29;20580;-73
2023/04/13 11:10:25;;;;;;;9.00;8.50;;;13.40;92.20;;;;;;4914845;29;20557;-73
2023/04/13 11:12:53;;;;;;;8.93;8.27;;;13.60;92.50;;;;;;4914317;29;20463;-73
2023/04/13 11:15:21;;;;;;;9.20;8.70;;;13.90;91.20;;;;;;4914512;29;20461;-73
2023/04/13 11:17:54;;;;;;;10.40;9.70;;;14.20;90.70;;;;;;4914632;29;20465;-73
2023/04/13 11:20:30;;;;;;;10.20;9.60;;;14.50;89.50;;;;;;4914610;29;20489;-74
2023/04/13 11:22:57;;;;;;;9.80;9.00;;;14.50;88.70;;;;;;4914532;29;20485;-73
2023/04/13 11:25:24;;;;;;;9.77;9.37;;;14.30;89.00;;;;;;4914761;29;20458;-73
2023/04/13 11:27:56;;;;;;;11.50;10.80;;;14.30;90.00;;;;;;4915052;29;20950;-74
2023/04/13 11:30:23;;;;;;;11.83;10.77;;;14.30;89.70;;;;;;4915004;29;20451;-74
2023/04/13 11:32:52;;;;;;;9.57;9.07;;;14.50;90.10;;;;;;4914594;29;20458;-74
2023/04/13 11:35:21;;;;;;;10.03;9.43;;;14.50;88.60;;;;;;4914362;29;20546;-74
2023/04/13 11:37:51;;;;;;;10.90;10.20;;;14.40;87.80;;;;;;4914182;29;20451;-74
2023/04/13 11:40:21;;;;;;;10.63;10.10;;;14.10;90.20;;;;;;4914515;29;20486;-73
2023/04/13 11:42:50;;;;;;;11.67;10.87;;;13.90;91.00;;;;;;4914346;29;20459;-73
2023/04/13 11:45:17;;;;;;;14.47;13.70;;;13.30;96.70;;;;;;4914151;29;20532;-72
2023/04/13 11:47:44;;;;;;;22.00;21.00;;;12.10;99.90;;;;;;4914039;29;20489;-71
2023/04/13 11:50:12;;;;;;;30.27;28.73;;;11.20;99.90;;;;;;4914098;29;20498;-70
2023/04/13 11:52:41;;;;;;;34.60;32.60;;;10.50;99.90;;;;;;4913978;29;20964;-70
2023/04/13 11:55:09;;;;;;;34.80;33.00;;;10.00;99.90;;;;;;4914281;29;20458;-70
2023/04/13 11:57:36;;;;;;;34.53;32.83;;;9.60;99.90;;;;;;4914318;29;20460;-71
2023/04/13 12:00:12;;;;;;;35.90;34.13;;;9.40;99.90;;;;;;4914451;29;20811;-72
2023/04/13 12:02:41;;;;;;;36.07;34.23;;;9.30;99.90;;;;;;4913889;29;20458;-71
2023/04/13 12:05:10;;;;;;;33.03;31.53;;;9.30;99.90;;;;;;4913986;29;20454;-71
2023/04/13 12:07:41;;;;;;;35.90;33.80;;;9.60;99.90;;;;;;4913827;29;20501;-70
2023/04/13 12:10:09;;;;;;;33.40;31.80;;;9.90;99.90;;;;;;4912316;29;20458;-70
2023/04/13 12:12:36;;;;;;;29.27;27.97;;;10.30;99.90;;;;;;4913540;29;20695;-71
2023/04/13 12:15:04;;;;;;;27.73;26.47;;;10.40;99.90;;;;;;4913618;29;20463;-69
2023/04/13 12:17:32;;;;;;;19.53;18.63;;;11.00;99.90;;;;;;4913456;29;20946;-69
2023/04/13 12:20:00;;;;;;;18.17;17.07;;;11.40;99.90;;;;;;4913144;29;20474;-69
2023/04/13 12:22:36;;;;;;;14.97;14.37;;;11.50;99.90;;;;;;4913184;29;20485;-68
2023/04/13 12:25:15;;;;;;;14.50;13.80;;;12.00;99.90;;;;;;4913129;29;20478;-70
2023/04/13 12:27:42;;;;;;;13.07;12.43;;;12.80;99.90;;;;;;4913142;29;20481;-69
2023/04/13 12:30:11;;;;;;;12.17;11.50;;;12.80;99.90;;;;;;4913458;29;20450;-69
2023/04/13 12:32:41;;;;;;;12.83;12.23;;;12.40;99.90;;;;;;4913291;29;20551;-70
2023/04/13 12:35:08;;;;;;;11.80;11.20;;;12.30;99.90;;;;;;4913450;29;20450;-70
2023/04/13 12:37:36;;;;;;;10.33;9.93;;;12.40;99.90;;;;;;4913434;29;20527;-70
2023/04/13 12:40:04;;;;;;;12.03;11.43;;;12.50;99.90;;;;;;4913376;29;20465;-71
2023/04/13 12:42:32;;;;;;;12.07;11.30;;;12.40;99.90;;;;;;4913305;29;20573;-73
2023/04/13 12:44:59;;;;;;;11.33;10.63;;;12.00;99.90;;;;;;4913240;29;20458;-73
2023/04/13 12:47:25;;;;;;;10.40;10.00;;;12.00;99.90;;;;;;4918276;29;20481;-72
2023/04/13 12:49:52;;;;;;;11.37;10.70;;;12.30;99.90;;;;;;4932366;29;20560;-72
2023/04/13 12:52:19;;;;;;;11.90;11.20;;;12.30;99.90;;;;;;4932241;29;20450;-71
2023/04/13 12:54:45;;;;;;;11.10;10.50;;;12.40;99.90;;;;;;4932176;29;20449;-72
2023/04/13 12:57:15;;;;;;;11.87;11.27;;;12.30;99.90;;;;;;4932119;29;20465;-71
2023/04/13 12:59:43;;;;;;;11.07;10.67;;;12.40;99.90;;;;;;4931951;29;20493;-71
2023/04/13 13:02:10;;;;;;;11.27;10.77;;;12.10;99.90;;;;;;4932233;29;20480;-71
2023/04/13 13:04:37;;;;;;;12.47;11.60;;;11.70;99.90;;;;;;4928323;29;20457;-71
2023/04/13 13:07:04;;;;;;;12.73;11.93;;;11.50;99.90;;;;;;4932188;29;20492;-70
2023/04/13 13:09:30;;;;;;;25.80;24.40;;;11.70;99.90;;;;;;4932160;29;20453;-71
2023/04/13 13:11:57;;;;;;;34.27;32.73;;;11.80;99.90;;;;;;4932151;29;20461;-72
2023/04/13 13:14:24;;;;;;;37.40;35.60;;;11.50;99.90;;;;;;4932140;29;20513;-72
2023/04/13 13:16:52;;;;;;;38.63;36.73;;;11.10;99.90;;;;;;4932309;29;20461;-74
2023/04/13 13:19:19;;;;;;;40.27;37.83;;;10.80;99.90;;;;;;4931773;29;20461;-74
2023/04/13 13:21:46;;;;;;;37.33;35.27;;;10.30;99.90;;;;;;4931400;29;20488;-73
2023/04/13 13:24:12;;;;;;;36.40;34.40;;;9.90;99.90;;;;;;4931711;29;20804;-73
2023/04/13 13:26:39;;;;;;;36.33;34.53;;;9.70;99.90;;;;;;4931879;29;20461;-72
2023/04/13 13:29:06;;;;;;;34.87;33.10;;;9.70;99.90;;;;;;4931958;29;20500;-71
2023/04/13 13:31:32;;;;;;;34.13;32.33;;;9.60;99.90;;;;;;4931995;29;20468;-71
2023/04/13 13:34:00;;;;;;;32.07;30.60;;;9.80;99.90;;;;;;4931776;29;20467;-71
2023/04/13 13:36:29;;;;;;;30.20;28.73;;;9.90;99.90;;;;;;4932592;29;20513;-73
2023/04/13 13:38:58;;;;;;;28.87;27.57;;;9.90;99.90;;;;;;4935809;29;20461;-75
2023/04/13 13:41:25;;;;;;;27.17;25.97;;;9.90;99.90;;;;;;4935670;29;20468;-71
2023/04/13 13:43:52;;;;;;;25.13;23.93;;;9.90;99.90;;;;;;4935781;29;20460;-71
2023/04/13 13:46:18;;;;;;;24.50;23.03;;;10.00;99.90;;;;;;4933647;29;20453;-70
2023/04/13 13:48:45;;;;;;;25.20;24.10;;;10.10;99.90;;;;;;4935207;29;20507;-70
2023/04/13 13:51:13;;;;;;;28.30;26.73;;;10.30;99.90;;;;;;4935220;29;20454;-71
2023/04/13 13:53:40;;;;;;;24.60;22.70;;;10.40;99.90;;;;;;4935655;29;20484;-71
2023/04/13 13:56:06;;;;;;;21.83;20.53;;;10.50;99.90;;;;;;4935556;29;20468;-70
2023/04/13 13:58:33;;;;;;;21.10;19.83;;;10.40;99.90;;;;;;4935101;29;20453;-70
2023/04/13 14:01:01;;;;;;;17.87;16.97;;;10.30;99.90;;;;;;4934998;29;20532;-70
2023/04/13 14:03:27;;;;;;;16.27;15.47;;;10.40;99.90;;;;;;4929464;29;20492;-70
2023/04/13 14:05:54;;;;;;;15.30;14.40;;;10.50;99.90;;;;;;4935151;29;20453;-71
2023/04/13 14:08:22;;;;;;;14.10;13.37;;;10.50;99.90;;;;;;4935207;29;20533;-70
2023/04/13 14:10:49;;;;;;;14.17;13.30;;;10.70;99.90;;;;;;4935173;29;20460;-71
2023/04/13 14:13:16;;;;;;;13.10;12.40;;;10.90;99.90;;;;;;4934835;29;20823;-71
2023/04/13 14:15:43;;;;;;;12.20;11.10;;;10.90;99.90;;;;;;4934889;29;20457;-72
2023/04/13 14:18:09;;;;;;;10.27;9.77;;;10.80;99.90;;;;;;4934971;29;20453;-72
2023/04/13 14:20:37;;;;;;;10.70;10.10;;;10.70;99.90;;;;;;4934879;29;20516;-71
2023/04/13 14:23:04;;;;;;;12.00;11.20;;;10.70;99.90;;;;;;4934867;29;20484;-71
2023/04/13 14:25:32;;;;;;;10.60;10.07;;;10.90;99.90;;;;;;4934328;29;20901;-71
2023/04/13 14:27:59;;;;;;;10.70;10.20;;;10.90;99.90;;;;;;4934535;29;20506;-71
2023/04/13 14:30:26;;;;;;;9.83;9.50;;;10.80;99.90;;;;;;4934871;29;20948;-71
2023/04/13 14:32:52;;;;;;;10.77;10.30;;;10.60;99.90;;;;;;4935214;29;20461;-71
2023/04/13 14:35:19;;;;;;;9.63;9.33;;;10.40;99.90;;;;;;4934879;29;20570;-71
2023/04/13 14:37:46;;;;;;;10.60;10.10;;;10.40;99.90;;;;;;4934710;29;20496;-72
2023/04/13 14:40:15;;;;;;;11.67;11.27;;;10.40;99.90;;;;;;4934724;29;20947;-71
2023/04/13 14:42:44;;;;;;;10.83;10.33;;;10.40;99.90;;;;;;4934583;29;20458;-71
2023/04/13 14:45:11;;;;;;;10.87;10.27;;;10.40;99.90;;;;;;4934696;29;20476;-71
2023/04/13 14:47:38;;;;;;;11.00;10.50;;;10.30;99.90;;;;;;4934678;29;20951;-71
2023/04/13 14:50:07;;;;;;;11.00;10.50;;;10.20;99.90;;;;;;4934390;29;20457;-70
2023/04/13 14:52:36;;;;;;;10.07;9.57;;;10.20;99.90;;;;;;4934340;29;20453;-71
2023/04/13 14:55:03;;;;;;;11.80;10.97;;;10.10;99.90;;;;;;4934197;29;20752;-75
2023/04/13 14:57:30;;;;;;;11.20;10.70;;;10.00;99.90;;;;;;4934594;29;20860;-75